sensor_id;sensor_type;location;lat;lon;timestamp;temperature;humidity
20162;DHT22;51382;53.180;15.414;2023-07-20T00:01:37;13.00;99.90
20162;DHT22;51382;53.180;15.414;2023-07-20T00:16:54;13.40;99.90
20162;DHT22;51382;53.180;15.414;2023-07-20T00:32:06;12.60;99.90
20162;DHT22;51382;53.180;15.414;2023-07-20T00:47:18;13.20;99.90
20162;DHT22;51382;53.180;15.414;2023-07-20T01:02:29;13.10;99.90
20162;DHT22;51382;53.180;15.414;2023-07-20T01:17:40;12.70;99.90
20162;DHT22;51382;53.180;15.414;2023-07-20T01:32:52;13.00;99.90
20162;DHT22;51382;53.180;15.414;2023-07-20T01:48:06;13.30;99.90
20162;DHT22;51382;53.180;15.414;2023-07-20T02:03:18;13.10;99.90
20162;DHT22;51382;53.180;15.414;2023-07-20T02:18:32;13.40;99.90
20162;DHT22;51382;53.180;15.414;2023-07-20T02:33:44;13.30;99.90
20162;DHT22;51382;53.180;15.414;2023-07-20T02:48:55;13.40;99.90
20162;DHT22;51382;53.180;15.414;2023-07-20T03:04:07;13.60;99.90
20162;DHT22;51382;53.180;15.414;2023-07-20T03:19:19;13.60;99.90
20162;DHT22;51382;53.180;15.414;2023-07-20T03:34:30;13.70;99.90
20162;DHT22;51382;53.180;15.414;2023-07-20T04:05:14;14.30;99.90
20162;DHT22;51382;53.180;15.414;2023-07-20T04:20:26;14.50;99.90
20162;DHT22;51382;53.180;15.414;2023-07-20T04:35:47;15.90;99.90
20162;DHT22;51382;53.180;15.414;2023-07-20T04:51:03;18.70;99.90
20162;DHT22;51382;53.180;15.414;2023-07-20T05:06:10;22.20;99.90
20162;DHT22;51382;53.180;15.414;2023-07-20T05:21:18;24.00;99.90
20162;DHT22;51382;53.180;15.414;2023-07-20T05:36:26;19.40;99.90
20162;DHT22;51382;53.180;15.414;2023-07-20T05:51:34;24.60;97.20
20162;DHT22;51382;53.180;15.414;2023-07-20T06:06:48;25.50;92.50
20162;DHT22;51382;53.180;15.414;2023-07-20T06:22:01;22.20;97.70
20162;DHT22;51382;53.180;15.414;2023-07-20T06:37:12;25.60;90.60
20162;DHT22;51382;53.180;15.414;2023-07-20T06:52:25;20.20;99.90
20162;DHT22;51382;53.180;15.414;2023-07-20T07:07:42;19.00;99.90
20162;DHT22;51382;53.180;15.414;2023-07-20T07:22:55;23.20;90.80
20162;DHT22;51382;53.180;15.414;2023-07-20T07:38:09;26.40;78.80
20162;DHT22;51382;53.180;15.414;2023-07-20T07:53:18;24.80;80.40
20162;DHT22;51382;53.180;15.414;2023-07-20T08:08:36;24.30;83.50
20162;DHT22;51382;53.180;15.414;2023-07-20T08:23:45;24.30;79.00
20162;DHT22;51382;53.180;15.414;2023-07-20T08:39:00;20.40;92.30
20162;DHT22;51382;53.180;15.414;2023-07-20T08:54:16;19.80;92.60
20162;DHT22;51382;53.180;15.414;2023-07-20T09:09:32;20.60;91.80
20162;DHT22;51382;53.180;15.414;2023-07-20T09:24:49;22.00;87.70
20162;DHT22;51382;53.180;15.414;2023-07-20T09:40:09;18.80;97.20
20162;DHT22;51382;53.180;15.414;2023-07-20T09:55:23;15.10;99.90
20162;DHT22;51382;53.180;15.414;2023-07-20T10:10:37;15.00;99.90
20162;DHT22;51382;53.180;15.414;2023-07-20T10:25:52;15.40;99.90
20162;DHT22;51382;53.180;15.414;2023-07-20T10:41:05;18.50;99.90
20162;DHT22;51382;53.180;15.414;2023-07-20T10:56:32;19.20;99.90
20162;DHT22;51382;53.180;15.414;2023-07-20T11:11:48;20.20;99.90
20162;DHT22;51382;53.180;15.414;2023-07-20T11:27:14;20.50;99.90
20162;DHT22;51382;53.180;15.414;2023-07-20T11:42:26;20.00;99.90
20162;DHT22;51382;53.180;15.414;2023-07-20T11:57:40;18.80;99.90
20162;DHT22;51382;53.180;15.414;2023-07-20T12:13:11;18.80;99.90
20162;DHT22;51382;53.180;15.414;2023-07-20T12:28:25;19.60;99.90
20162;DHT22;51382;53.180;15.414;2023-07-20T12:43:38;20.70;99.90
20162;DHT22;51382;53.180;15.414;2023-07-20T12:58:50;19.80;99.90
20162;DHT22;51382;53.180;15.414;2023-07-20T13:14:02;20.10;99.90
20162;DHT22;51382;53.180;15.414;2023-07-20T13:29:17;20.40;99.90
20162;DHT22;51382;53.180;15.414;2023-07-20T13:44:29;21.30;96.60
20162;DHT22;51382;53.180;15.414;2023-07-20T13:59:37;21.50;94.20
20162;DHT22;51382;53.180;15.414;2023-07-20T14:14:51;21.10;88.70
20162;DHT22;51382;53.180;15.414;2023-07-20T14:30:07;22.00;84.40
20162;DHT22;51382;53.180;15.414;2023-07-20T14:45:21;21.10;81.70
20162;DHT22;51382;53.180;15.414;2023-07-20T15:00:35;21.20;84.30
20162;DHT22;51382;53.180;15.414;2023-07-20T15:15:45;21.20;81.70
20162;DHT22;51382;53.180;15.414;2023-07-20T15:31:03;21.00;80.10
20162;DHT22;51382;53.180;15.414;2023-07-20T16:01:58;21.40;74.30
20162;DHT22;51382;53.180;15.414;2023-07-20T16:17:13;21.10;74.70
20162;DHT22;51382;53.180;15.414;2023-07-20T16:32:27;20.30;77.60
20162;DHT22;51382;53.180;15.414;2023-07-20T16:47:36;20.20;79.00
20162;DHT22;51382;53.180;15.414;2023-07-20T17:02:46;19.90;81.60
20162;DHT22;51382;53.180;15.414;2023-07-20T17:18:00;20.40;82.10
20162;DHT22;51382;53.180;15.414;2023-07-20T17:33:14;20.70;78.80
20162;DHT22;51382;53.180;15.414;2023-07-20T17:48:26;20.00;81.10
20162;DHT22;51382;53.180;15.414;2023-07-20T18:03:41;19.30;87.20
20162;DHT22;51382;53.180;15.414;2023-07-20T18:34:09;18.40;90.20
20162;DHT22;51382;53.180;15.414;2023-07-20T18:49:19;17.70;91.50
20162;DHT22;51382;53.180;15.414;2023-07-20T19:04:31;17.40;92.20
20162;DHT22;51382;53.180;15.414;2023-07-20T19:19:39;16.70;93.70
20162;DHT22;51382;53.180;15.414;2023-07-20T19:34:48;16.10;95.20
20162;DHT22;51382;53.180;15.414;2023-07-20T19:49:57;15.80;96.50
20162;DHT22;51382;53.180;15.414;2023-07-20T20:05:07;16.00;97.60
20162;DHT22;51382;53.180;15.414;2023-07-20T20:20:23;16.00;98.20
20162;DHT22;51382;53.180;15.414;2023-07-20T20:35:36;15.50;99.90
20162;DHT22;51382;53.180;15.414;2023-07-20T20:50:47;14.60;99.90
20162;DHT22;51382;53.180;15.414;2023-07-20T21:06:01;14.40;99.90
20162;DHT22;51382;53.180;15.414;2023-07-20T21:21:11;14.30;99.90
20162;DHT22;51382;53.180;15.414;2023-07-20T21:36:24;14.10;99.90
20162;DHT22;51382;53.180;15.414;2023-07-20T21:51:33;13.80;99.90
20162;DHT22;51382;53.180;15.414;2023-07-20T22:06:47;13.80;99.90
20162;DHT22;51382;53.180;15.414;2023-07-20T22:22:14;13.90;99.90
20162;DHT22;51382;53.180;15.414;2023-07-20T22:37:25;13.60;99.90
20162;DHT22;51382;53.180;15.414;2023-07-20T22:52:34;13.20;99.90
20162;DHT22;51382;53.180;15.414;2023-07-20T23:07:48;13.20;99.90
20162;DHT22;51382;53.180;15.414;2023-07-20T23:23:02;13.00;99.90
20162;DHT22;51382;53.180;15.414;2023-07-20T23:38:17;12.90;99.90
20162;DHT22;51382;53.180;15.414;2023-07-20T23:53:27;12.90;99.90
